KDPG/DPG METAR and TAF weather

Enter ICAO airport designator
Station Type Date Time Source
KDPG METAR 2018/07/16 23:00 UTC NOAA

KDPG 162300Z 32010G16KT 40SM FEW150 SCT200 37/03 A3002 RMK SLP103 LAST T03690030


Station Type Date Time Source
KDPG Decoded METAR 2018/07/16 23:00 UTC NOAA

Dugway Proving Grounds, UT, United States (KDPG) 40-10N 112-56W 1325M
Jul 16, 2018 - 07:00 PM EDT / 2018.07.16 2300 UTC
Wind: from the NW (320 degrees) at 12 MPH (10 KT) gusting to 18 MPH (16 KT):0
Visibility: 40 mile(s):0
Sky conditions: partly cloudy
Temperature: 98.4 F (36.9 C)
Dew Point: 37.4 F (3.0 C)
Relative Humidity: 12%
Pressure (altimeter): 30.02 in. Hg (1016 hPa)
ob: KDPG 162300Z 32010G16KT 40SM FEW150 SCT200 37/03 A3002 RMK SLP103 LAST T03690030
cycle: 23

Station Type Date Time Source
KDPG TAF UTC NOAA

Error!


Example: see airport list